sensor_id;sensor_type;location;lat;lon;timestamp;P1;durP1;ratioP1;P2;durP2;ratioP2
9997;SDS011;5038;53.064;8.624;2024-01-06T00:01:51;13.87;;;10.90;;
9997;SDS011;5038;53.064;8.624;2024-01-06T00:04:19;13.20;;;9.90;;
9997;SDS011;5038;53.064;8.624;2024-01-06T00:06:49;12.30;;;11.00;;
9997;SDS011;5038;53.064;8.624;2024-01-06T00:09:18;11.50;;;9.83;;
9997;SDS011;5038;53.064;8.624;2024-01-06T00:11:46;12.07;;;10.40;;
9997;SDS011;5038;53.064;8.624;2024-01-06T00:14:15;10.77;;;9.30;;
9997;SDS011;5038;53.064;8.624;2024-01-06T00:16:43;12.33;;;9.87;;
9997;SDS011;5038;53.064;8.624;2024-01-06T00:19:11;11.33;;;9.90;;
9997;SDS011;5038;53.064;8.624;2024-01-06T00:21:39;10.47;;;9.37;;
9997;SDS011;5038;53.064;8.624;2024-01-06T00:24:09;10.73;;;9.37;;
9997;SDS011;5038;53.064;8.624;2024-01-06T00:26:37;10.83;;;9.27;;
9997;SDS011;5038;53.064;8.624;2024-01-06T00:29:06;9.90;;;8.83;;
9997;SDS011;5038;53.064;8.624;2024-01-06T00:31:34;10.33;;;8.80;;
9997;SDS011;5038;53.064;8.624;2024-01-06T00:34:02;12.63;;;10.40;;
9997;SDS011;5038;53.064;8.624;2024-01-06T00:36:31;11.50;;;10.30;;
9997;SDS011;5038;53.064;8.624;2024-01-06T00:38:59;11.40;;;9.60;;
9997;SDS011;5038;53.064;8.624;2024-01-06T00:41:29;11.50;;;8.60;;
9997;SDS011;5038;53.064;8.624;2024-01-06T00:43:57;11.00;;;9.33;;
9997;SDS011;5038;53.064;8.624;2024-01-06T00:46:27;9.50;;;7.83;;
9997;SDS011;5038;53.064;8.624;2024-01-06T00:48:55;10.87;;;8.63;;
9997;SDS011;5038;53.064;8.624;2024-01-06T00:51:23;10.70;;;9.03;;
9997;SDS011;5038;53.064;8.624;2024-01-06T00:53:52;10.53;;;9.40;;
9997;SDS011;5038;53.064;8.624;2024-01-06T00:56:20;12.20;;;10.80;;
9997;SDS011;5038;53.064;8.624;2024-01-06T00:58:50;9.87;;;8.87;;
9997;SDS011;5038;53.064;8.624;2024-01-06T01:01:18;9.93;;;8.50;;
9997;SDS011;5038;53.064;8.624;2024-01-06T01:03:46;11.40;;;8.43;;
9997;SDS011;5038;53.064;8.624;2024-01-06T01:06:15;10.93;;;8.80;;
9997;SDS011;5038;53.064;8.624;2024-01-06T01:08:44;10.20;;;8.40;;
9997;SDS011;5038;53.064;8.624;2024-01-06T01:11:12;9.73;;;8.70;;
9997;SDS011;5038;53.064;8.624;2024-01-06T01:13:41;9.93;;;8.40;;
9997;SDS011;5038;53.064;8.624;2024-01-06T01:16:11;10.30;;;8.70;;
9997;SDS011;5038;53.064;8.624;2024-01-06T01:18:42;9.90;;;8.73;;
9997;SDS011;5038;53.064;8.624;2024-01-06T01:21:11;10.27;;;8.20;;
9997;SDS011;5038;53.064;8.624;2024-01-06T01:23:39;12.30;;;9.73;;
9997;SDS011;5038;53.064;8.624;2024-01-06T01:26:08;9.80;;;7.83;;
9997;SDS011;5038;53.064;8.624;2024-01-06T01:28:36;9.40;;;7.87;;
9997;SDS011;5038;53.064;8.624;2024-01-06T01:31:06;9.90;;;7.87;;
9997;SDS011;5038;53.064;8.624;2024-01-06T01:33:36;11.63;;;8.43;;
9997;SDS011;5038;53.064;8.624;2024-01-06T01:36:05;8.97;;;7.90;;
9997;SDS011;5038;53.064;8.624;2024-01-06T01:38:33;10.30;;;8.50;;
9997;SDS011;5038;53.064;8.624;2024-01-06T01:41:02;9.67;;;8.20;;
9997;SDS011;5038;53.064;8.624;2024-01-06T01:43:31;9.00;;;7.70;;
9997;SDS011;5038;53.064;8.624;2024-01-06T01:45:59;9.97;;;8.23;;
9997;SDS011;5038;53.064;8.624;2024-01-06T01:48:28;9.47;;;8.47;;
9997;SDS011;5038;53.064;8.624;2024-01-06T01:50:58;10.10;;;7.97;;
9997;SDS011;5038;53.064;8.624;2024-01-06T01:53:27;12.20;;;9.30;;
9997;SDS011;5038;53.064;8.624;2024-01-06T01:55:57;12.17;;;9.07;;
9997;SDS011;5038;53.064;8.624;2024-01-06T01:58:26;11.67;;;9.00;;
9997;SDS011;5038;53.064;8.624;2024-01-06T02:00:54;10.57;;;9.33;;
9997;SDS011;5038;53.064;8.624;2024-01-06T02:03:23;10.97;;;8.90;;
9997;SDS011;5038;53.064;8.624;2024-01-06T02:05:53;9.60;;;8.10;;
9997;SDS011;5038;53.064;8.624;2024-01-06T02:08:23;11.47;;;8.93;;
9997;SDS011;5038;53.064;8.624;2024-01-06T02:10:51;9.53;;;8.00;;
9997;SDS011;5038;53.064;8.624;2024-01-06T02:13:22;11.70;;;9.23;;
9997;SDS011;5038;53.064;8.624;2024-01-06T02:15:51;10.00;;;8.90;;
9997;SDS011;5038;53.064;8.624;2024-01-06T02:18:20;9.73;;;8.73;;
9997;SDS011;5038;53.064;8.624;2024-01-06T02:20:48;10.07;;;8.00;;
9997;SDS011;5038;53.064;8.624;2024-01-06T02:23:20;9.90;;;8.60;;
9997;SDS011;5038;53.064;8.624;2024-01-06T02:25:49;11.30;;;9.07;;
9997;SDS011;5038;53.064;8.624;2024-01-06T02:28:17;10.33;;;8.43;;
9997;SDS011;5038;53.064;8.624;2024-01-06T02:30:46;9.50;;;8.33;;
9997;SDS011;5038;53.064;8.624;2024-01-06T02:33:15;11.50;;;8.43;;
9997;SDS011;5038;53.064;8.624;2024-01-06T02:35:43;10.50;;;8.90;;
9997;SDS011;5038;53.064;8.624;2024-01-06T02:38:12;9.13;;;7.43;;
9997;SDS011;5038;53.064;8.624;2024-01-06T02:40:42;10.47;;;8.87;;
9997;SDS011;5038;53.064;8.624;2024-01-06T02:43:10;9.53;;;8.53;;
9997;SDS011;5038;53.064;8.624;2024-01-06T02:45:39;11.40;;;9.83;;
9997;SDS011;5038;53.064;8.624;2024-01-06T02:48:07;11.07;;;9.93;;
9997;SDS011;5038;53.064;8.624;2024-01-06T02:50:36;13.87;;;10.93;;
9997;SDS011;5038;53.064;8.624;2024-01-06T02:53:04;12.67;;;11.00;;
9997;SDS011;5038;53.064;8.624;2024-01-06T02:55:33;13.33;;;10.00;;
9997;SDS011;5038;53.064;8.624;2024-01-06T02:58:03;11.40;;;10.10;;
9997;SDS011;5038;53.064;8.624;2024-01-06T03:00:31;11.97;;;10.50;;
9997;SDS011;5038;53.064;8.624;2024-01-06T03:03:00;13.63;;;11.10;;
9997;SDS011;5038;53.064;8.624;2024-01-06T03:05:28;11.53;;;10.10;;
9997;SDS011;5038;53.064;8.624;2024-01-06T03:07:57;11.20;;;9.93;;
9997;SDS011;5038;53.064;8.624;2024-01-06T03:10:26;13.37;;;11.40;;
9997;SDS011;5038;53.064;8.624;2024-01-06T03:12:54;12.03;;;9.37;;
9997;SDS011;5038;53.064;8.624;2024-01-06T03:15:24;11.40;;;9.90;;
9997;SDS011;5038;53.064;8.624;2024-01-06T03:17:53;12.27;;;9.87;;
9997;SDS011;5038;53.064;8.624;2024-01-06T03:20:21;10.77;;;9.67;;
9997;SDS011;5038;53.064;8.624;2024-01-06T03:22:50;11.93;;;10.37;;
9997;SDS011;5038;53.064;8.624;2024-01-06T03:25:18;11.40;;;9.67;;
9997;SDS011;5038;53.064;8.624;2024-01-06T03:27:47;11.40;;;9.77;;
9997;SDS011;5038;53.064;8.624;2024-01-06T03:30:16;11.00;;;9.90;;
9997;SDS011;5038;53.064;8.624;2024-01-06T03:32:46;12.00;;;9.50;;
9997;SDS011;5038;53.064;8.624;2024-01-06T03:35:14;12.40;;;10.00;;
9997;SDS011;5038;53.064;8.624;2024-01-06T03:37:43;10.17;;;9.07;;
9997;SDS011;5038;53.064;8.624;2024-01-06T03:40:12;11.90;;;10.40;;
9997;SDS011;5038;53.064;8.624;2024-01-06T03:42:40;12.27;;;11.07;;
9997;SDS011;5038;53.064;8.624;2024-01-06T03:45:09;11.23;;;9.90;;
9997;SDS011;5038;53.064;8.624;2024-01-06T03:47:37;11.87;;;10.50;;
9997;SDS011;5038;53.064;8.624;2024-01-06T03:50:07;11.53;;;9.63;;
9997;SDS011;5038;53.064;8.624;2024-01-06T03:52:36;11.50;;;10.30;;
9997;SDS011;5038;53.064;8.624;2024-01-06T03:55:05;11.17;;;9.77;;
9997;SDS011;5038;53.064;8.624;2024-01-06T03:57:34;12.17;;;10.50;;
9997;SDS011;5038;53.064;8.624;2024-01-06T04:00:03;12.40;;;9.93;;
9997;SDS011;5038;53.064;8.624;2024-01-06T04:02:33;12.47;;;9.50;;
9997;SDS011;5038;53.064;8.624;2024-01-06T04:05:01;11.73;;;10.50;;
9997;SDS011;5038;53.064;8.624;2024-01-06T04:07:33;11.23;;;9.93;;
9997;SDS011;5038;53.064;8.624;2024-01-06T04:10:01;11.83;;;10.63;;
9997;SDS011;5038;53.064;8.624;2024-01-06T04:12:30;13.00;;;10.27;;
9997;SDS011;5038;53.064;8.624;2024-01-06T04:14:58;10.10;;;8.57;;
9997;SDS011;5038;53.064;8.624;2024-01-06T04:17:27;12.90;;;10.90;;
9997;SDS011;5038;53.064;8.624;2024-01-06T04:19:55;12.97;;;10.60;;
9997;SDS011;5038;53.064;8.624;2024-01-06T04:22:24;11.90;;;10.70;;
9997;SDS011;5038;53.064;8.624;2024-01-06T04:24:54;11.30;;;9.70;;
9997;SDS011;5038;53.064;8.624;2024-01-06T04:27:22;11.77;;;10.50;;
9997;SDS011;5038;53.064;8.624;2024-01-06T04:29:50;11.33;;;10.03;;
9997;SDS011;5038;53.064;8.624;2024-01-06T04:32:19;13.37;;;10.57;;
9997;SDS011;5038;53.064;8.624;2024-01-06T04:34:48;11.40;;;10.20;;
9997;SDS011;5038;53.064;8.624;2024-01-06T04:37:16;12.20;;;10.00;;
9997;SDS011;5038;53.064;8.624;2024-01-06T04:39:44;10.90;;;9.73;;
9997;SDS011;5038;53.064;8.624;2024-01-06T04:42:14;12.50;;;9.93;;
9997;SDS011;5038;53.064;8.624;2024-01-06T04:44:43;13.23;;;11.43;;
9997;SDS011;5038;53.064;8.624;2024-01-06T04:47:12;11.47;;;9.73;;
9997;SDS011;5038;53.064;8.624;2024-01-06T04:49:40;12.10;;;9.87;;
9997;SDS011;5038;53.064;8.624;2024-01-06T04:52:09;10.97;;;9.13;;
9997;SDS011;5038;53.064;8.624;2024-01-06T04:54:37;10.03;;;9.03;;
9997;SDS011;5038;53.064;8.624;2024-01-06T04:57:06;11.23;;;10.07;;
9997;SDS011;5038;53.064;8.624;2024-01-06T04:59:36;12.43;;;9.27;;
9997;SDS011;5038;53.064;8.624;2024-01-06T05:02:04;11.10;;;9.90;;
9997;SDS011;5038;53.064;8.624;2024-01-06T05:04:33;10.27;;;9.17;;
9997;SDS011;5038;53.064;8.624;2024-01-06T05:07:02;10.00;;;8.50;;
9997;SDS011;5038;53.064;8.624;2024-01-06T05:09:31;10.90;;;8.90;;
9997;SDS011;5038;53.064;8.624;2024-01-06T05:11:59;13.00;;;9.70;;
9997;SDS011;5038;53.064;8.624;2024-01-06T05:14:28;10.77;;;9.10;;
9997;SDS011;5038;53.064;8.624;2024-01-06T05:16:57;11.73;;;10.50;;
9997;SDS011;5038;53.064;8.624;2024-01-06T05:19:26;10.80;;;9.67;;
9997;SDS011;5038;53.064;8.624;2024-01-06T05:21:55;11.80;;;8.90;;
9997;SDS011;5038;53.064;8.624;2024-01-06T05:24:23;11.90;;;10.17;;
9997;SDS011;5038;53.064;8.624;2024-01-06T05:26:52;12.67;;;10.07;;
9997;SDS011;5038;53.064;8.624;2024-01-06T05:29:20;11.53;;;10.33;;
9997;SDS011;5038;53.064;8.624;2024-01-06T05:31:49;11.70;;;10.30;;
9997;SDS011;5038;53.064;8.624;2024-01-06T05:34:19;13.23;;;10.67;;
9997;SDS011;5038;53.064;8.624;2024-01-06T05:36:47;12.10;;;10.60;;
9997;SDS011;5038;53.064;8.624;2024-01-06T05:39:16;11.27;;;10.07;;
9997;SDS011;5038;53.064;8.624;2024-01-06T05:41:44;13.77;;;11.23;;
9997;SDS011;5038;53.064;8.624;2024-01-06T05:44:12;11.97;;;10.17;;
9997;SDS011;5038;53.064;8.624;2024-01-06T05:46:41;12.70;;;10.33;;
9997;SDS011;5038;53.064;8.624;2024-01-06T05:49:09;11.10;;;9.70;;
9997;SDS011;5038;53.064;8.624;2024-01-06T05:51:44;11.77;;;10.10;;
9997;SDS011;5038;53.064;8.624;2024-01-06T05:54:13;12.07;;;9.80;;
9997;SDS011;5038;53.064;8.624;2024-01-06T05:56:42;11.17;;;9.33;;
9997;SDS011;5038;53.064;8.624;2024-01-06T05:59:10;11.67;;;9.83;;
9997;SDS011;5038;53.064;8.624;2024-01-06T06:01:39;10.97;;;9.87;;
9997;SDS011;5038;53.064;8.624;2024-01-06T06:04:07;13.03;;;11.60;;
9997;SDS011;5038;53.064;8.624;2024-01-06T06:06:36;14.27;;;11.20;;
9997;SDS011;5038;53.064;8.624;2024-01-06T06:09:06;11.50;;;10.30;;
9997;SDS011;5038;53.064;8.624;2024-01-06T06:11:36;12.03;;;10.33;;
9997;SDS011;5038;53.064;8.624;2024-01-06T06:14:05;12.50;;;11.03;;
9997;SDS011;5038;53.064;8.624;2024-01-06T06:16:33;12.63;;;10.50;;
9997;SDS011;5038;53.064;8.624;2024-01-06T06:19:01;13.30;;;11.00;;
9997;SDS011;5038;53.064;8.624;2024-01-06T06:21:31;11.03;;;9.23;;
9997;SDS011;5038;53.064;8.624;2024-01-06T06:23:59;12.47;;;11.17;;
9997;SDS011;5038;53.064;8.624;2024-01-06T06:26:29;12.20;;;10.30;;
9997;SDS011;5038;53.064;8.624;2024-01-06T06:28:59;11.87;;;9.83;;
9997;SDS011;5038;53.064;8.624;2024-01-06T06:31:27;11.73;;;10.53;;
9997;SDS011;5038;53.064;8.624;2024-01-06T06:33:56;12.63;;;10.63;;
9997;SDS011;5038;53.064;8.624;2024-01-06T06:36:25;12.07;;;10.60;;
9997;SDS011;5038;53.064;8.624;2024-01-06T06:38:54;12.70;;;10.67;;
9997;SDS011;5038;53.064;8.624;2024-01-06T06:41:24;13.77;;;11.97;;
9997;SDS011;5038;53.064;8.624;2024-01-06T06:43:54;11.93;;;9.83;;
9997;SDS011;5038;53.064;8.624;2024-01-06T06:46:22;9.57;;;8.50;;
9997;SDS011;5038;53.064;8.624;2024-01-06T06:48:51;12.43;;;11.07;;
9997;SDS011;5038;53.064;8.624;2024-01-06T06:51:19;13.33;;;11.80;;
9997;SDS011;5038;53.064;8.624;2024-01-06T06:53:51;15.20;;;12.90;;
9997;SDS011;5038;53.064;8.624;2024-01-06T06:56:20;14.50;;;11.87;;
9997;SDS011;5038;53.064;8.624;2024-01-06T06:58:48;13.97;;;11.33;;
9997;SDS011;5038;53.064;8.624;2024-01-06T07:01:18;13.23;;;11.83;;
9997;SDS011;5038;53.064;8.624;2024-01-06T07:03:47;14.53;;;12.40;;
9997;SDS011;5038;53.064;8.624;2024-01-06T07:06:15;13.10;;;11.20;;
9997;SDS011;5038;53.064;8.624;2024-01-06T07:08:44;15.80;;;14.20;;
9997;SDS011;5038;53.064;8.624;2024-01-06T07:11:12;15.67;;;12.70;;
9997;SDS011;5038;53.064;8.624;2024-01-06T07:13:41;14.50;;;11.90;;
9997;SDS011;5038;53.064;8.624;2024-01-06T07:16:10;15.33;;;13.63;;
9997;SDS011;5038;53.064;8.624;2024-01-06T07:18:46;15.67;;;13.00;;
9997;SDS011;5038;53.064;8.624;2024-01-06T07:21:15;16.30;;;13.83;;
9997;SDS011;5038;53.064;8.624;2024-01-06T07:23:44;15.03;;;12.40;;
9997;SDS011;5038;53.064;8.624;2024-01-06T07:26:12;15.03;;;13.43;;
9997;SDS011;5038;53.064;8.624;2024-01-06T07:28:41;15.53;;;12.60;;
9997;SDS011;5038;53.064;8.624;2024-01-06T07:31:09;14.10;;;12.60;;
9997;SDS011;5038;53.064;8.624;2024-01-06T07:33:38;14.13;;;12.37;;
9997;SDS011;5038;53.064;8.624;2024-01-06T07:36:08;16.98;;;14.65;;
9997;SDS011;5038;53.064;8.624;2024-01-06T07:38:37;17.20;;;15.47;;
9997;SDS011;5038;53.064;8.624;2024-01-06T07:41:06;15.43;;;13.73;;
9997;SDS011;5038;53.064;8.624;2024-01-06T07:43:34;14.30;;;12.70;;
9997;SDS011;5038;53.064;8.624;2024-01-06T07:46:03;14.10;;;12.67;;
9997;SDS011;5038;53.064;8.624;2024-01-06T07:48:33;17.40;;;14.10;;
9997;SDS011;5038;53.064;8.624;2024-01-06T07:51:02;17.40;;;14.23;;
9997;SDS011;5038;53.064;8.624;2024-01-06T07:53:34;15.43;;;13.63;;
9997;SDS011;5038;53.064;8.624;2024-01-06T07:56:02;16.40;;;13.80;;
9997;SDS011;5038;53.064;8.624;2024-01-06T07:58:31;16.20;;;14.10;;
9997;SDS011;5038;53.064;8.624;2024-01-06T08:01:00;17.87;;;14.40;;
9997;SDS011;5038;53.064;8.624;2024-01-06T08:03:29;17.77;;;14.10;;
9997;SDS011;5038;53.064;8.624;2024-01-06T08:05:58;16.20;;;13.33;;
9997;SDS011;5038;53.064;8.624;2024-01-06T08:08:27;16.10;;;13.80;;
9997;SDS011;5038;53.064;8.624;2024-01-06T08:10:58;17.50;;;13.87;;
9997;SDS011;5038;53.064;8.624;2024-01-06T08:13:26;16.03;;;13.40;;
9997;SDS011;5038;53.064;8.624;2024-01-06T08:15:54;17.67;;;14.47;;
9997;SDS011;5038;53.064;8.624;2024-01-06T08:18:37;17.63;;;14.00;;
9997;SDS011;5038;53.064;8.624;2024-01-06T08:21:06;18.07;;;13.90;;
9997;SDS011;5038;53.064;8.624;2024-01-06T08:23:35;17.27;;;14.67;;
9997;SDS011;5038;53.064;8.624;2024-01-06T08:26:05;15.97;;;13.87;;
9997;SDS011;5038;53.064;8.624;2024-01-06T08:28:38;18.50;;;14.30;;
9997;SDS011;5038;53.064;8.624;2024-01-06T08:31:07;17.03;;;15.23;;
9997;SDS011;5038;53.064;8.624;2024-01-06T08:33:36;19.87;;;14.73;;
9997;SDS011;5038;53.064;8.624;2024-01-06T08:36:05;16.83;;;13.33;;
9997;SDS011;5038;53.064;8.624;2024-01-06T08:38:33;18.27;;;14.03;;
9997;SDS011;5038;53.064;8.624;2024-01-06T08:41:02;20.10;;;15.30;;
9997;SDS011;5038;53.064;8.624;2024-01-06T08:43:39;19.07;;;16.17;;
9997;SDS011;5038;53.064;8.624;2024-01-06T08:46:07;19.40;;;16.03;;
9997;SDS011;5038;53.064;8.624;2024-01-06T08:48:36;18.70;;;15.37;;
9997;SDS011;5038;53.064;8.624;2024-01-06T08:51:04;18.70;;;16.00;;
9997;SDS011;5038;53.064;8.624;2024-01-06T08:53:33;17.77;;;15.40;;
9997;SDS011;5038;53.064;8.624;2024-01-06T08:56:01;21.20;;;17.40;;
9997;SDS011;5038;53.064;8.624;2024-01-06T08:58:32;18.63;;;15.90;;
9997;SDS011;5038;53.064;8.624;2024-01-06T09:01:00;19.77;;;15.63;;
9997;SDS011;5038;53.064;8.624;2024-01-06T09:03:29;18.70;;;16.03;;
9997;SDS011;5038;53.064;8.624;2024-01-06T09:05:58;19.90;;;16.80;;
9997;SDS011;5038;53.064;8.624;2024-01-06T09:08:26;23.77;;;19.57;;
9997;SDS011;5038;53.064;8.624;2024-01-06T09:10:55;21.83;;;17.83;;
9997;SDS011;5038;53.064;8.624;2024-01-06T09:13:25;22.80;;;17.93;;
9997;SDS011;5038;53.064;8.624;2024-01-06T09:15:55;19.97;;;17.57;;
9997;SDS011;5038;53.064;8.624;2024-01-06T09:18:27;21.07;;;17.13;;
9997;SDS011;5038;53.064;8.624;2024-01-06T09:20:56;21.20;;;18.20;;
9997;SDS011;5038;53.064;8.624;2024-01-06T09:23:24;21.77;;;18.10;;
9997;SDS011;5038;53.064;8.624;2024-01-06T09:25:53;23.40;;;19.13;;
9997;SDS011;5038;53.064;8.624;2024-01-06T09:28:21;22.37;;;18.00;;
9997;SDS011;5038;53.064;8.624;2024-01-06T09:30:50;23.30;;;19.40;;
9997;SDS011;5038;53.064;8.624;2024-01-06T09:33:22;22.73;;;18.57;;
9997;SDS011;5038;53.064;8.624;2024-01-06T09:35:51;22.37;;;19.80;;
9997;SDS011;5038;53.064;8.624;2024-01-06T09:38:20;23.97;;;19.90;;
9997;SDS011;5038;53.064;8.624;2024-01-06T09:40:48;31.10;;;24.90;;
9997;SDS011;5038;53.064;8.624;2024-01-06T09:43:17;25.57;;;21.13;;
9997;SDS011;5038;53.064;8.624;2024-01-06T09:45:46;25.07;;;22.07;;
9997;SDS011;5038;53.064;8.624;2024-01-06T09:48:22;28.63;;;23.00;;
9997;SDS011;5038;53.064;8.624;2024-01-06T09:50:56;46.93;;;34.50;;
9997;SDS011;5038;53.064;8.624;2024-01-06T09:53:33;27.93;;;22.63;;
9997;SDS011;5038;53.064;8.624;2024-01-06T09:56:03;24.00;;;19.40;;
9997;SDS011;5038;53.064;8.624;2024-01-06T09:58:33;22.97;;;19.07;;
9997;SDS011;5038;53.064;8.624;2024-01-06T10:01:04;22.87;;;18.23;;
9997;SDS011;5038;53.064;8.624;2024-01-06T10:03:37;22.97;;;19.00;;
9997;SDS011;5038;53.064;8.624;2024-01-06T10:06:06;25.30;;;19.93;;
9997;SDS011;5038;53.064;8.624;2024-01-06T10:08:36;23.67;;;19.80;;
9997;SDS011;5038;53.064;8.624;2024-01-06T10:11:07;24.70;;;19.03;;
9997;SDS011;5038;53.064;8.624;2024-01-06T10:13:36;26.00;;;21.40;;
9997;SDS011;5038;53.064;8.624;2024-01-06T10:16:05;24.60;;;19.00;;
9997;SDS011;5038;53.064;8.624;2024-01-06T10:18:34;23.57;;;19.43;;
9997;SDS011;5038;53.064;8.624;2024-01-06T10:21:04;23.70;;;18.70;;
9997;SDS011;5038;53.064;8.624;2024-01-06T10:23:33;23.77;;;19.47;;
9997;SDS011;5038;53.064;8.624;2024-01-06T10:26:03;23.07;;;19.47;;
9997;SDS011;5038;53.064;8.624;2024-01-06T10:28:31;23.60;;;20.00;;
9997;SDS011;5038;53.064;8.624;2024-01-06T10:31:00;21.80;;;17.53;;
9997;SDS011;5038;53.064;8.624;2024-01-06T10:33:29;22.13;;;18.90;;
9997;SDS011;5038;53.064;8.624;2024-01-06T10:36:01;24.83;;;19.33;;
9997;SDS011;5038;53.064;8.624;2024-01-06T10:38:35;23.27;;;19.10;;
9997;SDS011;5038;53.064;8.624;2024-01-06T10:41:04;22.87;;;19.10;;
9997;SDS011;5038;53.064;8.624;2024-01-06T10:43:34;23.70;;;19.73;;
9997;SDS011;5038;53.064;8.624;2024-01-06T10:46:07;21.80;;;18.77;;
9997;SDS011;5038;53.064;8.624;2024-01-06T10:48:38;26.60;;;20.13;;
9997;SDS011;5038;53.064;8.624;2024-01-06T10:51:10;26.53;;;20.53;;
9997;SDS011;5038;53.064;8.624;2024-01-06T10:53:42;24.17;;;20.50;;
9997;SDS011;5038;53.064;8.624;2024-01-06T10:56:11;26.30;;;21.07;;
9997;SDS011;5038;53.064;8.624;2024-01-06T10:58:40;25.00;;;20.30;;
9997;SDS011;5038;53.064;8.624;2024-01-06T11:01:15;24.33;;;19.93;;
9997;SDS011;5038;53.064;8.624;2024-01-06T11:03:48;24.43;;;19.50;;
9997;SDS011;5038;53.064;8.624;2024-01-06T11:06:17;24.67;;;21.23;;
9997;SDS011;5038;53.064;8.624;2024-01-06T11:08:48;19.33;;;16.37;;
9997;SDS011;5038;53.064;8.624;2024-01-06T11:11:20;24.37;;;19.80;;
9997;SDS011;5038;53.064;8.624;2024-01-06T11:13:50;26.97;;;21.00;;
9997;SDS011;5038;53.064;8.624;2024-01-06T11:16:34;25.50;;;21.03;;
9997;SDS011;5038;53.064;8.624;2024-01-06T11:19:08;24.27;;;20.33;;
9997;SDS011;5038;53.064;8.624;2024-01-06T11:22:25;24.50;;;19.30;;
9997;SDS011;5038;53.064;8.624;2024-01-06T11:24:57;24.73;;;21.93;;
9997;SDS011;5038;53.064;8.624;2024-01-06T11:27:32;27.90;;;20.70;;
9997;SDS011;5038;53.064;8.624;2024-01-06T11:30:02;26.57;;;20.80;;
9997;SDS011;5038;53.064;8.624;2024-01-06T11:32:34;26.33;;;21.43;;
9997;SDS011;5038;53.064;8.624;2024-01-06T11:35:06;29.83;;;23.43;;
9997;SDS011;5038;53.064;8.624;2024-01-06T11:37:37;27.07;;;21.83;;
9997;SDS011;5038;53.064;8.624;2024-01-06T11:40:24;27.93;;;21.40;;
9997;SDS011;5038;53.064;8.624;2024-01-06T11:42:59;27.23;;;22.03;;
9997;SDS011;5038;53.064;8.624;2024-01-06T11:45:29;29.67;;;20.87;;
9997;SDS011;5038;53.064;8.624;2024-01-06T11:47:59;26.40;;;21.20;;
9997;SDS011;5038;53.064;8.624;2024-01-06T11:50:29;29.95;;;26.80;;
9997;SDS011;5038;53.064;8.624;2024-01-06T11:52:58;27.40;;;24.60;;
9997;SDS011;5038;53.064;8.624;2024-01-06T11:55:29;27.93;;;24.80;;
9997;SDS011;5038;53.064;8.624;2024-01-06T11:57:59;25.70;;;20.73;;
9997;SDS011;5038;53.064;8.624;2024-01-06T12:00:30;28.20;;;21.20;;
9997;SDS011;5038;53.064;8.624;2024-01-06T12:02:59;25.50;;;21.30;;
9997;SDS011;5038;53.064;8.624;2024-01-06T12:05:29;25.80;;;20.37;;
9997;SDS011;5038;53.064;8.624;2024-01-06T12:07:58;26.13;;;21.37;;
9997;SDS011;5038;53.064;8.624;2024-01-06T12:10:30;25.37;;;22.10;;
9997;SDS011;5038;53.064;8.624;2024-01-06T12:13:00;28.20;;;20.70;;
9997;SDS011;5038;53.064;8.624;2024-01-06T12:15:30;29.60;;;22.37;;
9997;SDS011;5038;53.064;8.624;2024-01-06T12:17:59;29.73;;;21.03;;
9997;SDS011;5038;53.064;8.624;2024-01-06T12:20:31;26.70;;;22.20;;
9997;SDS011;5038;53.064;8.624;2024-01-06T12:23:00;28.27;;;22.63;;
9997;SDS011;5038;53.064;8.624;2024-01-06T12:25:34;30.03;;;22.13;;
9997;SDS011;5038;53.064;8.624;2024-01-06T12:28:08;28.83;;;22.00;;
9997;SDS011;5038;53.064;8.624;2024-01-06T12:30:38;28.60;;;22.37;;
9997;SDS011;5038;53.064;8.624;2024-01-06T12:33:07;31.43;;;22.90;;
9997;SDS011;5038;53.064;8.624;2024-01-06T12:35:37;29.83;;;25.07;;
9997;SDS011;5038;53.064;8.624;2024-01-06T12:38:08;29.27;;;22.60;;
9997;SDS011;5038;53.064;8.624;2024-01-06T12:40:38;28.33;;;20.23;;
9997;SDS011;5038;53.064;8.624;2024-01-06T12:43:07;28.37;;;20.70;;
9997;SDS011;5038;53.064;8.624;2024-01-06T12:45:36;27.40;;;21.47;;
9997;SDS011;5038;53.064;8.624;2024-01-06T12:48:04;28.93;;;22.07;;
9997;SDS011;5038;53.064;8.624;2024-01-06T12:50:34;30.00;;;21.80;;
9997;SDS011;5038;53.064;8.624;2024-01-06T12:53:02;29.77;;;23.60;;
9997;SDS011;5038;53.064;8.624;2024-01-06T12:55:31;28.23;;;22.30;;
9997;SDS011;5038;53.064;8.624;2024-01-06T12:58:01;28.50;;;22.73;;
9997;SDS011;5038;53.064;8.624;2024-01-06T13:00:31;30.47;;;24.70;;
9997;SDS011;5038;53.064;8.624;2024-01-06T13:03:02;26.27;;;22.20;;
9997;SDS011;5038;53.064;8.624;2024-01-06T13:05:32;31.20;;;23.10;;
9997;SDS011;5038;53.064;8.624;2024-01-06T13:08:01;27.17;;;21.50;;
9997;SDS011;5038;53.064;8.624;2024-01-06T13:10:30;26.17;;;20.20;;
9997;SDS011;5038;53.064;8.624;2024-01-06T13:12:58;26.03;;;22.00;;
9997;SDS011;5038;53.064;8.624;2024-01-06T13:15:28;26.70;;;20.43;;
9997;SDS011;5038;53.064;8.624;2024-01-06T13:17:57;23.90;;;20.53;;
9997;SDS011;5038;53.064;8.624;2024-01-06T13:20:25;22.97;;;19.30;;
9997;SDS011;5038;53.064;8.624;2024-01-06T13:22:54;26.93;;;20.83;;
9997;SDS011;5038;53.064;8.624;2024-01-06T13:25:22;24.10;;;20.23;;
9997;SDS011;5038;53.064;8.624;2024-01-06T13:27:51;24.10;;;20.90;;
9997;SDS011;5038;53.064;8.624;2024-01-06T13:30:19;27.50;;;21.83;;
9997;SDS011;5038;53.064;8.624;2024-01-06T13:32:49;25.87;;;21.63;;
9997;SDS011;5038;53.064;8.624;2024-01-06T13:35:20;28.83;;;22.37;;
9997;SDS011;5038;53.064;8.624;2024-01-06T13:37:53;29.03;;;21.40;;
9997;SDS011;5038;53.064;8.624;2024-01-06T13:40:22;31.23;;;22.67;;
9997;SDS011;5038;53.064;8.624;2024-01-06T13:42:51;25.20;;;20.43;;
9997;SDS011;5038;53.064;8.624;2024-01-06T13:45:20;29.90;;;22.53;;
9997;SDS011;5038;53.064;8.624;2024-01-06T13:47:50;24.10;;;20.40;;
9997;SDS011;5038;53.064;8.624;2024-01-06T13:50:19;25.33;;;20.80;;
9997;SDS011;5038;53.064;8.624;2024-01-06T13:52:48;27.53;;;21.03;;
9997;SDS011;5038;53.064;8.624;2024-01-06T13:55:17;28.10;;;22.40;;
9997;SDS011;5038;53.064;8.624;2024-01-06T13:57:45;30.00;;;21.40;;
9997;SDS011;5038;53.064;8.624;2024-01-06T14:00:14;28.43;;;22.67;;
9997;SDS011;5038;53.064;8.624;2024-01-06T14:02:46;29.47;;;21.97;;
9997;SDS011;5038;53.064;8.624;2024-01-06T14:05:16;30.33;;;22.23;;
9997;SDS011;5038;53.064;8.624;2024-01-06T14:07:46;27.70;;;22.90;;
9997;SDS011;5038;53.064;8.624;2024-01-06T14:10:17;24.50;;;20.33;;
9997;SDS011;5038;53.064;8.624;2024-01-06T14:12:46;23.37;;;19.60;;
9997;SDS011;5038;53.064;8.624;2024-01-06T14:15:14;29.50;;;23.00;;
9997;SDS011;5038;53.064;8.624;2024-01-06T14:17:43;24.53;;;20.33;;
9997;SDS011;5038;53.064;8.624;2024-01-06T14:20:18;27.00;;;22.20;;
9997;SDS011;5038;53.064;8.624;2024-01-06T14:22:47;27.57;;;21.90;;
9997;SDS011;5038;53.064;8.624;2024-01-06T14:25:16;22.17;;;19.77;;
9997;SDS011;5038;53.064;8.624;2024-01-06T14:27:45;24.60;;;20.90;;
9997;SDS011;5038;53.064;8.624;2024-01-06T14:30:14;23.73;;;20.83;;
9997;SDS011;5038;53.064;8.624;2024-01-06T14:32:43;27.97;;;20.63;;
9997;SDS011;5038;53.064;8.624;2024-01-06T14:35:11;26.30;;;21.47;;
9997;SDS011;5038;53.064;8.624;2024-01-06T14:37:42;26.03;;;20.87;;
9997;SDS011;5038;53.064;8.624;2024-01-06T14:40:12;27.30;;;20.23;;
9997;SDS011;5038;53.064;8.624;2024-01-06T14:42:40;23.53;;;20.00;;
9997;SDS011;5038;53.064;8.624;2024-01-06T14:45:09;25.40;;;19.73;;
9997;SDS011;5038;53.064;8.624;2024-01-06T14:47:38;22.20;;;19.00;;
9997;SDS011;5038;53.064;8.624;2024-01-06T14:50:07;24.40;;;20.60;;
9997;SDS011;5038;53.064;8.624;2024-01-06T14:52:36;25.97;;;20.47;;
9997;SDS011;5038;53.064;8.624;2024-01-06T14:55:06;23.77;;;19.40;;
9997;SDS011;5038;53.064;8.624;2024-01-06T14:57:36;26.20;;;21.13;;
9997;SDS011;5038;53.064;8.624;2024-01-06T15:00:05;21.80;;;19.40;;
9997;SDS011;5038;53.064;8.624;2024-01-06T15:02:37;23.43;;;19.30;;
9997;SDS011;5038;53.064;8.624;2024-01-06T15:05:06;22.80;;;19.87;;
9997;SDS011;5038;53.064;8.624;2024-01-06T15:07:36;22.90;;;19.43;;